^^
Your Local Weather - Clay, NY Station Historical Data
Daily Summary for January 29, 2018 Units:  Both    English   Metric
« Previous Day
Next Day »
Daily Weekly Monthly Yearly Custom
  High: Low: Average:
Temperature: 34.7 °F /  1.5 °C 23.7 °F /  -4.6 °C 28.5 °F /  -1.9 °C
Dew Point: 28.1 °F /  -2.2 °C 20.2 °F /  -6.6 °C 23.7 °F /  -4.6 °C
Humidity: 91% 66% 83%
Wind Speed: 4.0mph /  6.4km/h - 0.4mph /  0.6km/h
Wind Gust: 8.0mph /  12.9km/h - -
Wind- - West
Pressure: 30.30 in /  1026 hPa 30.02 in /  1016.5 hPa -
Precipitation: 0.00 in /  0 mm    
Historical Graphs
 
 
Tabular Data for January 29, 2018
Time Temperature Dew Point Pressure Wind Wind Speed Wind Gust Humidity Rainfall Rate (Hourly) solar
00:04 27.8 °F /  -2.3 °C 25.0 °F /  -3.9 °C 30.29in /  1025.6hPa Calm     89% 0.00in /  0mm 0 W/m2
00:10 27.7 °F /  -2.4 °C 24.9 °F /  -3.9 °C 30.30in /  1026hPa Calm     89% 0.00in /  0mm 0 W/m2
00:16 27.7 °F /  -2.4 °C 24.9 °F /  -3.9 °C 30.30in /  1026hPa Calm     89% 0.00in /  0mm 0 W/m2
00:22 27.7 °F /  -2.4 °C 24.9 °F /  -3.9 °C 30.29in /  1025.6hPa Calm     89% 0.00in /  0mm 0 W/m2
00:28 27.6 °F /  -2.4 °C 24.8 °F /  -4 °C 30.29in /  1025.6hPa Calm     89% 0.00in /  0mm 0 W/m2
00:34 27.7 °F /  -2.4 °C 24.9 °F /  -3.9 °C 30.29in /  1025.6hPa Calm     89% 0.00in /  0mm 0 W/m2
00:40 27.8 °F /  -2.3 °C 25.0 °F /  -3.9 °C 30.28in /  1025.3hPa Calm     89% 0.00in /  0mm 0 W/m2
00:46 28.0 °F /  -2.2 °C 25.2 °F /  -3.8 °C 30.28in /  1025.3hPa Calm     89% 0.00in /  0mm 0 W/m2
00:52 28.2 °F /  -2.1 °C 25.6 °F /  -3.6 °C 30.28in /  1025.3hPa Calm     90% 0.00in /  0mm 0 W/m2
00:58 28.3 °F /  -2.1 °C 25.7 °F /  -3.5 °C 30.28in /  1025.3hPa Calm     90% 0.00in /  0mm 0 W/m2
01:04 28.3 °F /  -2.1 °C 25.7 °F /  -3.5 °C 30.28in /  1025.3hPa Calm     90% 0.00in /  0mm 0 W/m2
01:10 28.2 °F /  -2.1 °C 25.6 °F /  -3.6 °C 30.28in /  1025.3hPa Calm     90% 0.00in /  0mm 0 W/m2
01:16 28.1 °F /  -2.2 °C 25.5 °F /  -3.6 °C 30.28in /  1025.3hPa Calm     90% 0.00in /  0mm 0 W/m2
01:22 28.1 °F /  -2.2 °C 25.5 °F /  -3.6 °C 30.28in /  1025.3hPa Calm     90% 0.00in /  0mm 0 W/m2
01:28 27.9 °F /  -2.3 °C 25.1 °F /  -3.8 °C 30.28in /  1025.3hPa Calm     89% 0.00in /  0mm 0 W/m2
01:34 27.8 °F /  -2.3 °C 25.0 °F /  -3.9 °C 30.28in /  1025.3hPa Calm     89% 0.00in /  0mm 0 W/m2
01:40 27.7 °F /  -2.4 °C 25.2 °F /  -3.8 °C 30.28in /  1025.3hPa Calm     90% 0.00in /  0mm 0 W/m2
01:46 27.5 °F /  -2.5 °C 25.0 °F /  -3.9 °C 30.28in /  1025.3hPa Calm     90% 0.00in /  0mm 0 W/m2
01:52 27.3 °F /  -2.6 °C 24.5 °F /  -4.2 °C 30.28in /  1025.3hPa Calm     89% 0.00in /  0mm 0 W/m2
01:58 27.1 °F /  -2.7 °C 24.6 °F /  -4.1 °C 30.28in /  1025.3hPa Calm     90% 0.00in /  0mm 0 W/m2
02:04 26.9 °F /  -2.8 °C 24.1 °F /  -4.4 °C 30.29in /  1025.6hPa Calm     89% 0.00in /  0mm 0 W/m2
02:10 26.7 °F /  -2.9 °C 23.9 °F /  -4.5 °C 30.29in /  1025.6hPa Calm     89% 0.00in /  0mm 0 W/m2
02:16 26.6 °F /  -3 °C 24.1 °F /  -4.4 °C 30.29in /  1025.6hPa Calm     90% 0.00in /  0mm 0 W/m2
02:22 26.4 °F /  -3.1 °C 23.9 °F /  -4.5 °C 30.29in /  1025.6hPa Calm     90% 0.00in /  0mm 0 W/m2
02:28 26.3 °F /  -3.2 °C 23.8 °F /  -4.6 °C 30.29in /  1025.6hPa Calm     90% 0.00in /  0mm 0 W/m2
02:34 26.2 °F /  -3.2 °C 23.7 °F /  -4.6 °C 30.29in /  1025.6hPa Calm     90% 0.00in /  0mm 0 W/m2
02:40 26.2 °F /  -3.2 °C 23.7 °F /  -4.6 °C 30.29in /  1025.6hPa Calm     90% 0.00in /  0mm 0 W/m2
02:46 26.3 °F /  -3.2 °C 23.8 °F /  -4.6 °C 30.29in /  1025.6hPa Calm     90% 0.00in /  0mm 0 W/m2
02:52 26.4 °F /  -3.1 °C 23.9 °F /  -4.5 °C 30.29in /  1025.6hPa Calm     90% 0.00in /  0mm 0 W/m2
02:58 26.5 °F /  -3.1 °C 24.0 °F /  -4.4 °C 30.29in /  1025.6hPa Calm     90% 0.00in /  0mm 0 W/m2
03:04 26.5 °F /  -3.1 °C 24.0 °F /  -4.4 °C 30.29in /  1025.6hPa Calm     90% 0.00in /  0mm 0 W/m2
03:10 26.6 °F /  -3 °C 24.1 °F /  -4.4 °C 30.29in /  1025.6hPa Calm     90% 0.00in /  0mm 0 W/m2
03:16 26.6 °F /  -3 °C 24.1 °F /  -4.4 °C 30.28in /  1025.3hPa Calm     90% 0.00in /  0mm 0 W/m2
03:22 26.7 °F /  -2.9 °C 24.2 °F /  -4.3 °C 30.28in /  1025.3hPa Calm     90% 0.00in /  0mm 0 W/m2
03:28 26.7 °F /  -2.9 °C 24.2 °F /  -4.3 °C 30.27in /  1024.9hPa Calm     90% 0.00in /  0mm 0 W/m2
03:34 26.6 °F /  -3 °C 24.1 °F /  -4.4 °C 30.28in /  1025.3hPa Calm     90% 0.00in /  0mm 0 W/m2
03:40 26.6 °F /  -3 °C 24.1 °F /  -4.4 °C 30.27in /  1024.9hPa Calm     90% 0.00in /  0mm 0 W/m2
03:46 26.6 °F /  -3 °C 24.1 °F /  -4.4 °C 30.27in /  1024.9hPa Calm     90% 0.00in /  0mm 0 W/m2
03:52 26.5 °F /  -3.1 °C 24.0 °F /  -4.4 °C 30.27in /  1024.9hPa Calm     90% 0.00in /  0mm 0 W/m2
03:58 26.4 °F /  -3.1 °C 23.9 °F /  -4.5 °C 30.27in /  1024.9hPa Calm     90% 0.00in /  0mm 0 W/m2
04:04 26.3 °F /  -3.2 °C 23.8 °F /  -4.6 °C 30.27in /  1024.9hPa Calm     90% 0.00in /  0mm 0 W/m2
04:10 26.3 °F /  -3.2 °C 23.8 °F /  -4.6 °C 30.27in /  1024.9hPa Calm   1.0mph /  1.6km/h 90% 0.00in /  0mm 0 W/m2
04:16 26.4 °F /  -3.1 °C 23.9 °F /  -4.5 °C 30.27in /  1024.9hPa Calm   1.0mph /  1.6km/h 90% 0.00in /  0mm 0 W/m2
04:22 26.3 °F /  -3.2 °C 23.8 °F /  -4.6 °C 30.27in /  1024.9hPa Calm     90% 0.00in /  0mm 0 W/m2
04:28 26.2 °F /  -3.2 °C 23.7 °F /  -4.6 °C 30.27in /  1024.9hPa Calm     90% 0.00in /  0mm 0 W/m2
04:34 26.1 °F /  -3.3 °C 23.6 °F /  -4.7 °C 30.27in /  1024.9hPa Calm     90% 0.00in /  0mm 0 W/m2
04:40 26.0 °F /  -3.3 °C 23.5 °F /  -4.7 °C 30.27in /  1024.9hPa Calm     90% 0.00in /  0mm 0 W/m2
04:46 25.8 °F /  -3.4 °C 23.3 °F /  -4.8 °C 30.27in /  1024.9hPa Calm     90% 0.00in /  0mm 0 W/m2
04:52 25.7 °F /  -3.5 °C 23.2 °F /  -4.9 °C 30.27in /  1024.9hPa Calm     90% 0.00in /  0mm 0 W/m2
04:58 25.4 °F /  -3.7 °C 22.9 °F /  -5.1 °C 30.27in /  1024.9hPa Calm     90% 0.00in /  0mm 0 W/m2
05:04 25.1 °F /  -3.8 °C 22.6 °F /  -5.2 °C 30.27in /  1024.9hPa Calm     90% 0.00in /  0mm 0 W/m2
05:10 25.0 °F /  -3.9 °C 22.5 °F /  -5.3 °C 30.27in /  1024.9hPa Calm   1.0mph /  1.6km/h 90% 0.00in /  0mm 0 W/m2
05:16 24.7 °F /  -4.1 °C 22.2 °F /  -5.4 °C 30.27in /  1024.9hPa Calm   1.0mph /  1.6km/h 90% 0.00in /  0mm 0 W/m2
05:22 24.6 °F /  -4.1 °C 22.1 °F /  -5.5 °C 30.27in /  1024.9hPa Calm     90% 0.00in /  0mm 0 W/m2
05:28 24.4 °F /  -4.2 °C 21.9 °F /  -5.6 °C 30.27in /  1024.9hPa Calm     90% 0.00in /  0mm 0 W/m2
05:34 24.3 °F /  -4.3 °C 21.8 °F /  -5.7 °C 30.27in /  1024.9hPa Calm     90% 0.00in /  0mm 0 W/m2
05:40 24.1 °F /  -4.4 °C 21.6 °F /  -5.8 °C 30.27in /  1024.9hPa Calm     90% 0.00in /  0mm 0 W/m2
05:46 24.0 °F /  -4.4 °C 21.5 °F /  -5.8 °C 30.27in /  1024.9hPa Calm     90% 0.00in /  0mm 0 W/m2
05:52 24.0 °F /  -4.4 °C 21.5 °F /  -5.8 °C 30.27in /  1024.9hPa Calm     90% 0.00in /  0mm 0 W/m2
05:58 24.0 °F /  -4.4 °C 21.5 °F /  -5.8 °C 30.27in /  1024.9hPa Calm     90% 0.00in /  0mm 0 W/m2
06:04 24.0 °F /  -4.4 °C 21.5 °F /  -5.8 °C 30.28in /  1025.3hPa Calm     90% 0.00in /  0mm 0 W/m2
06:10 24.1 °F /  -4.4 °C 21.9 °F /  -5.6 °C 30.28in /  1025.3hPa Calm     91% 0.00in /  0mm 0 W/m2
06:16 24.2 °F /  -4.3 °C 22.0 °F /  -5.6 °C 30.28in /  1025.3hPa Calm     91% 0.00in /  0mm 0 W/m2
06:22 24.3 °F /  -4.3 °C 22.1 °F /  -5.5 °C 30.28in /  1025.3hPa Calm     91% 0.00in /  0mm 0 W/m2
06:28 24.4 °F /  -4.2 °C 22.2 °F /  -5.4 °C 30.28in /  1025.3hPa Calm     91% 0.00in /  0mm 0 W/m2
06:34 24.5 °F /  -4.2 °C 22.2 °F /  -5.4 °C 30.28in /  1025.3hPa Calm     91% 0.00in /  0mm 0 W/m2
06:40 24.7 °F /  -4.1 °C 22.4 °F /  -5.3 °C 30.29in /  1025.6hPa Calm     91% 0.00in /  0mm 0 W/m2
06:46 24.9 °F /  -3.9 °C 22.6 °F /  -5.2 °C 30.29in /  1025.6hPa Calm     91% 0.00in /  0mm 0 W/m2
06:52 25.0 °F /  -3.9 °C 22.7 °F /  -5.2 °C 30.29in /  1025.6hPa Calm     91% 0.00in /  0mm 0 W/m2
06:58 25.0 °F /  -3.9 °C 22.7 °F /  -5.2 °C 30.29in /  1025.6hPa Calm     91% 0.00in /  0mm 0 W/m2
07:04 25.0 °F /  -3.9 °C 22.7 °F /  -5.2 °C 30.29in /  1025.6hPa Calm     91% 0.00in /  0mm 0 W/m2
07:10 24.9 °F /  -3.9 °C 22.6 °F /  -5.2 °C 30.29in /  1025.6hPa Calm     91% 0.00in /  0mm 0 W/m2
07:16 24.7 °F /  -4.1 °C 22.4 °F /  -5.3 °C 30.29in /  1025.6hPa Calm     91% 0.00in /  0mm 0 W/m2
07:22 24.4 °F /  -4.2 °C 22.2 °F /  -5.4 °C 30.29in /  1025.6hPa Calm     91% 0.00in /  0mm 0 W/m2
07:28 24.2 °F /  -4.3 °C 22.0 °F /  -5.6 °C 30.29in /  1025.6hPa Calm     91% 0.00in /  0mm 5 W/m2
07:34 24.2 °F /  -4.3 °C 22.0 °F /  -5.6 °C 30.29in /  1025.6hPa Calm     91% 0.00in /  0mm 11 W/m2
07:40 24.0 °F /  -4.4 °C 21.8 °F /  -5.7 °C 30.29in /  1025.6hPa Calm     91% 0.00in /  0mm 18 W/m2
07:46 23.8 °F /  -4.6 °C 21.6 °F /  -5.8 °C 30.29in /  1025.6hPa Calm     91% 0.00in /  0mm 25 W/m2
07:52 23.7 °F /  -4.6 °C 21.5 °F /  -5.8 °C 30.29in /  1025.6hPa Calm     91% 0.00in /  0mm 35 W/m2
07:58 23.7 °F /  -4.6 °C 21.5 °F /  -5.8 °C 30.29in /  1025.6hPa Calm     91% 0.00in /  0mm 40 W/m2
08:04 23.8 °F /  -4.6 °C 21.6 °F /  -5.8 °C 30.29in /  1025.6hPa Calm     91% 0.00in /  0mm 46 W/m2
08:10 24.0 °F /  -4.4 °C 21.8 °F /  -5.7 °C 30.29in /  1025.6hPa Calm     91% 0.00in /  0mm 44 W/m2
08:16 24.2 °F /  -4.3 °C 22.0 °F /  -5.6 °C 30.29in /  1025.6hPa Calm     91% 0.00in /  0mm 53 W/m2
08:22 24.4 °F /  -4.2 °C 22.2 °F /  -5.4 °C 30.29in /  1025.6hPa Calm     91% 0.00in /  0mm 65 W/m2
08:28 24.9 °F /  -3.9 °C 22.6 °F /  -5.2 °C 30.29in /  1025.6hPa Calm     91% 0.00in /  0mm 102 W/m2
08:34 25.3 °F /  -3.7 °C 23.0 °F /  -5 °C 30.29in /  1025.6hPa Calm     91% 0.00in /  0mm 135 W/m2
08:40 25.8 °F /  -3.4 °C 23.5 °F /  -4.7 °C 30.29in /  1025.6hPa Calm     91% 0.00in /  0mm 120 W/m2
08:46 26.3 °F /  -3.2 °C 24.0 °F /  -4.4 °C 30.29in /  1025.6hPa Calm     91% 0.00in /  0mm 116 W/m2
08:52 26.8 °F /  -2.9 °C 24.5 °F /  -4.2 °C 30.29in /  1025.6hPa Calm     91% 0.00in /  0mm 162 W/m2
08:58 27.0 °F /  -2.8 °C 24.7 °F /  -4.1 °C 30.29in /  1025.6hPa Calm     91% 0.00in /  0mm 193 W/m2
09:04 27.7 °F /  -2.4 °C 25.4 °F /  -3.7 °C 30.29in /  1025.6hPa Calm     91% 0.00in /  0mm 251 W/m2
09:10 28.7 °F /  -1.8 °C 26.4 °F /  -3.1 °C 30.29in /  1025.6hPa Calm     91% 0.00in /  0mm 304 W/m2
09:16 29.4 °F /  -1.4 °C 26.8 °F /  -2.9 °C 30.28in /  1025.3hPa Calm     90% 0.00in /  0mm 304 W/m2
09:22 30.1 °F /  -1.1 °C 26.1 °F /  -3.3 °C 30.28in /  1025.3hPa Calm     85% 0.00in /  0mm 283 W/m2
09:28 30.7 °F /  -0.7 °C 26.1 °F /  -3.3 °C 30.28in /  1025.3hPa Calm     83% 0.00in /  0mm 301 W/m2
09:34 31.4 °F /  -0.3 °C 26.2 °F /  -3.2 °C 30.28in /  1025.3hPa Calm     81% 0.00in /  0mm 229 W/m2
09:40 30.8 °F /  -0.7 °C 26.0 °F /  -3.3 °C 30.28in /  1025.3hPa Calm     82% 0.00in /  0mm 199 W/m2
09:46 30.4 °F /  -0.9 °C 25.3 °F /  -3.7 °C 30.27in /  1024.9hPa Calm     81% 0.00in /  0mm 151 W/m2
09:52 29.7 °F /  -1.3 °C 24.6 °F /  -4.1 °C 30.27in /  1024.9hPa NNW 1.0mph /  1.6km/h 1.0mph /  1.6km/h 81% 0.00in /  0mm 156 W/m2
09:58 29.8 °F /  -1.2 °C 25.0 °F /  -3.9 °C 30.27in /  1024.9hPa NNW 1.0mph /  1.6km/h 1.0mph /  1.6km/h 82% 0.00in /  0mm 172 W/m2
10:04 29.9 °F /  -1.2 °C 25.1 °F /  -3.8 °C 30.27in /  1024.9hPa Calm   1.0mph /  1.6km/h 82% 0.00in /  0mm 151 W/m2
10:10 29.8 °F /  -1.2 °C 25.0 °F /  -3.9 °C 30.27in /  1024.9hPa Calm     82% 0.00in /  0mm 172 W/m2
10:16 29.8 °F /  -1.2 °C 25.0 °F /  -3.9 °C 30.27in /  1024.9hPa Calm     82% 0.00in /  0mm 153 W/m2
10:22 30.0 °F /  -1.1 °C 25.5 °F /  -3.6 °C 30.27in /  1024.9hPa Calm     83% 0.00in /  0mm 176 W/m2
10:28 30.3 °F /  -0.9 °C 25.8 °F /  -3.4 °C 30.27in /  1024.9hPa NNW 1.0mph /  1.6km/h 3.0mph /  4.8km/h 83% 0.00in /  0mm 216 W/m2
10:34 30.6 °F /  -0.8 °C 25.8 °F /  -3.4 °C 30.27in /  1024.9hPa NNW 1.0mph /  1.6km/h 1.0mph /  1.6km/h 82% 0.00in /  0mm 213 W/m2
10:40 30.7 °F /  -0.7 °C 25.9 °F /  -3.4 °C 30.26in /  1024.6hPa Calm   1.0mph /  1.6km/h 82% 0.00in /  0mm 246 W/m2
10:46 31.1 °F /  -0.5 °C 26.5 °F /  -3.1 °C 30.26in /  1024.6hPa Calm   2.0mph /  3.2km/h 83% 0.00in /  0mm 248 W/m2
10:52 31.2 °F /  -0.4 °C 26.3 °F /  -3.2 °C 30.26in /  1024.6hPa NNW 1.0mph /  1.6km/h 1.0mph /  1.6km/h 82% 0.00in /  0mm 269 W/m2
10:58 31.5 °F /  -0.3 °C 26.6 °F /  -3 °C 30.26in /  1024.6hPa NNW 1.0mph /  1.6km/h 1.0mph /  1.6km/h 82% 0.00in /  0mm 290 W/m2
11:04 31.5 °F /  -0.3 °C 26.3 °F /  -3.2 °C 30.26in /  1024.6hPa NNW 1.0mph /  1.6km/h 1.0mph /  1.6km/h 81% 0.00in /  0mm 267 W/m2
11:10 32.0 °F /  0 °C 26.8 °F /  -2.9 °C 30.26in /  1024.6hPa Calm     81% 0.00in /  0mm 251 W/m2
11:16 31.7 °F /  -0.2 °C 26.2 °F /  -3.2 °C 30.25in /  1024.3hPa Calm   2.0mph /  3.2km/h 80% 0.00in /  0mm 227 W/m2
11:22 31.6 °F /  -0.2 °C 26.4 °F /  -3.1 °C 30.25in /  1024.3hPa Calm     81% 0.00in /  0mm 225 W/m2
11:28 31.8 °F /  -0.1 °C 26.6 °F /  -3 °C 30.25in /  1024.3hPa Calm     81% 0.00in /  0mm 225 W/m2
11:34 32.2 °F /  0.1 °C 27.0 °F /  -2.8 °C 30.24in /  1023.9hPa Calm     81% 0.00in /  0mm 221 W/m2
11:40 32.6 °F /  0.3 °C 27.4 °F /  -2.6 °C 30.24in /  1023.9hPa Calm     81% 0.00in /  0mm 213 W/m2
11:46 32.6 °F /  0.3 °C 27.1 °F /  -2.7 °C 30.24in /  1023.9hPa Calm   1.0mph /  1.6km/h 80% 0.00in /  0mm 216 W/m2
11:52 32.7 °F /  0.4 °C 26.9 °F /  -2.8 °C 30.23in /  1023.6hPa Calm     79% 0.00in /  0mm 216 W/m2
11:58 32.9 °F /  0.5 °C 27.1 °F /  -2.7 °C 30.23in /  1023.6hPa Calm     79% 0.00in /  0mm 213 W/m2
12:04 33.1 °F /  0.6 °C 27.3 °F /  -2.6 °C 30.23in /  1023.6hPa Calm     79% 0.00in /  0mm 213 W/m2
12:10 33.1 °F /  0.6 °C 27.0 °F /  -2.8 °C 30.23in /  1023.6hPa Calm     78% 0.00in /  0mm 214 W/m2
12:16 33.1 °F /  0.6 °C 27.0 °F /  -2.8 °C 30.22in /  1023.2hPa NNW 1.0mph /  1.6km/h 3.0mph /  4.8km/h 78% 0.00in /  0mm 216 W/m2
12:22 33.0 °F /  0.6 °C 26.9 °F /  -2.8 °C 30.22in /  1023.2hPa NNW 1.0mph /  1.6km/h 1.0mph /  1.6km/h 78% 0.00in /  0mm 211 W/m2
12:28 33.3 °F /  0.7 °C 27.5 °F /  -2.5 °C 30.21in /  1022.9hPa NNW 1.0mph /  1.6km/h 1.0mph /  1.6km/h 79% 0.00in /  0mm 204 W/m2
12:34 33.5 °F /  0.8 °C 27.4 °F /  -2.6 °C 30.21in /  1022.9hPa Calm   1.0mph /  1.6km/h 78% 0.00in /  0mm 202 W/m2
12:40 33.7 °F /  0.9 °C 27.3 °F /  -2.6 °C 30.21in /  1022.9hPa NNW 1.0mph /  1.6km/h 1.0mph /  1.6km/h 77% 0.00in /  0mm 211 W/m2
12:46 33.9 °F /  1.1 °C 27.4 °F /  -2.6 °C 30.20in /  1022.6hPa NNW 1.0mph /  1.6km/h 2.0mph /  3.2km/h 77% 0.00in /  0mm 230 W/m2
12:52 34.1 °F /  1.2 °C 27.6 °F /  -2.4 °C 30.20in /  1022.6hPa NNW 1.0mph /  1.6km/h 3.0mph /  4.8km/h 77% 0.00in /  0mm 264 W/m2
12:58 34.6 °F /  1.4 °C 28.1 °F /  -2.2 °C 30.20in /  1022.6hPa NNW 1.0mph /  1.6km/h 3.0mph /  4.8km/h 77% 0.00in /  0mm 246 W/m2
13:04 34.7 °F /  1.5 °C 27.9 °F /  -2.3 °C 30.20in /  1022.6hPa NNW 1.0mph /  1.6km/h 2.0mph /  3.2km/h 76% 0.00in /  0mm 230 W/m2
13:10 34.5 °F /  1.4 °C 27.7 °F /  -2.4 °C 30.20in /  1022.6hPa NNW 1.0mph /  1.6km/h 2.0mph /  3.2km/h 76% 0.00in /  0mm 223 W/m2
13:16 34.3 °F /  1.3 °C 27.8 °F /  -2.3 °C 30.19in /  1022.2hPa NNW 2.0mph /  3.2km/h 3.0mph /  4.8km/h 77% 0.00in /  0mm 223 W/m2
13:22 34.0 °F /  1.1 °C 27.2 °F /  -2.7 °C 30.19in /  1022.2hPa NNW 2.0mph /  3.2km/h 3.0mph /  4.8km/h 76% 0.00in /  0mm 218 W/m2
13:28 34.2 °F /  1.2 °C 27.1 °F /  -2.7 °C 30.18in /  1021.9hPa NNW 1.0mph /  1.6km/h 3.0mph /  4.8km/h 75% 0.00in /  0mm 214 W/m2
13:34 34.2 °F /  1.2 °C 27.1 °F /  -2.7 °C 30.18in /  1021.9hPa NNW 1.0mph /  1.6km/h 2.0mph /  3.2km/h 75% 0.00in /  0mm 207 W/m2
13:40 34.1 °F /  1.2 °C 27.0 °F /  -2.8 °C 30.18in /  1021.9hPa NNE 2.0mph /  3.2km/h 2.0mph /  3.2km/h 75% 0.00in /  0mm 206 W/m2
13:46 34.1 °F /  1.2 °C 27.0 °F /  -2.8 °C 30.18in /  1021.9hPa East 2.0mph /  3.2km/h 3.0mph /  4.8km/h 75% 0.00in /  0mm 241 W/m2
13:52 34.1 °F /  1.2 °C 27.0 °F /  -2.8 °C 30.17in /  1021.6hPa NNE 2.0mph /  3.2km/h 3.0mph /  4.8km/h 75% 0.00in /  0mm 237 W/m2
13:58 34.3 °F /  1.3 °C 26.9 °F /  -2.8 °C 30.17in /  1021.6hPa NNW 2.0mph /  3.2km/h 4.0mph /  6.4km/h 74% 0.00in /  0mm 204 W/m2
14:04 34.3 °F /  1.3 °C 26.9 °F /  -2.8 °C 30.17in /  1021.6hPa NE 2.0mph /  3.2km/h 3.0mph /  4.8km/h 74% 0.00in /  0mm 192 W/m2
14:10 34.3 °F /  1.3 °C 26.5 °F /  -3.1 °C 30.17in /  1021.6hPa NE 2.0mph /  3.2km/h 2.0mph /  3.2km/h 73% 0.00in /  0mm 179 W/m2
14:16 34.3 °F /  1.3 °C 26.5 °F /  -3.1 °C 30.17in /  1021.6hPa NE 2.0mph /  3.2km/h 4.0mph /  6.4km/h 73% 0.00in /  0mm 165 W/m2
14:22 34.1 °F /  1.2 °C 26.3 °F /  -3.2 °C 30.16in /  1021.2hPa NE 2.0mph /  3.2km/h 2.0mph /  3.2km/h 73% 0.00in /  0mm 171 W/m2
14:28 34.3 °F /  1.3 °C 26.2 °F /  -3.2 °C 30.16in /  1021.2hPa NNW 2.0mph /  3.2km/h 3.0mph /  4.8km/h 72% 0.00in /  0mm 169 W/m2
14:34 34.2 °F /  1.2 °C 25.4 °F /  -3.7 °C 30.15in /  1020.9hPa NNW 2.0mph /  3.2km/h 3.0mph /  4.8km/h 70% 0.00in /  0mm 179 W/m2
14:40 34.4 °F /  1.3 °C 26.0 °F /  -3.3 °C 30.15in /  1020.9hPa NNW 1.0mph /  1.6km/h 3.0mph /  4.8km/h 71% 0.00in /  0mm 172 W/m2
14:46 34.4 °F /  1.3 °C 26.0 °F /  -3.3 °C 30.15in /  1020.9hPa North 1.0mph /  1.6km/h 3.0mph /  4.8km/h 71% 0.00in /  0mm 181 W/m2
14:52 34.3 °F /  1.3 °C 25.5 °F /  -3.6 °C 30.15in /  1020.9hPa ENE 2.0mph /  3.2km/h 2.0mph /  3.2km/h 70% 0.00in /  0mm 190 W/m2
14:58 34.3 °F /  1.3 °C 25.5 °F /  -3.6 °C 30.15in /  1020.9hPa ENE 1.0mph /  1.6km/h 3.0mph /  4.8km/h 70% 0.00in /  0mm 218 W/m2
15:04 34.5 °F /  1.4 °C 25.0 °F /  -3.9 °C 30.15in /  1020.9hPa NE 1.0mph /  1.6km/h 2.0mph /  3.2km/h 68% 0.00in /  0mm 202 W/m2
15:10 34.6 °F /  1.4 °C 24.4 °F /  -4.2 °C 30.15in /  1020.9hPa North 1.0mph /  1.6km/h 2.0mph /  3.2km/h 66% 0.00in /  0mm 223 W/m2
15:16 34.5 °F /  1.4 °C 24.3 °F /  -4.3 °C 30.15in /  1020.9hPa NE 1.0mph /  1.6km/h 3.0mph /  4.8km/h 66% 0.00in /  0mm 195 W/m2
15:22 34.7 °F /  1.5 °C 25.2 °F /  -3.8 °C 30.15in /  1020.9hPa NNW 2.0mph /  3.2km/h 3.0mph /  4.8km/h 68% 0.00in /  0mm 227 W/m2
15:28 34.4 °F /  1.3 °C 25.3 °F /  -3.7 °C 30.15in /  1020.9hPa NNW 3.0mph /  4.8km/h 5.0mph /  8km/h 69% 0.00in /  0mm 193 W/m2
15:34 34.3 °F /  1.3 °C 25.2 °F /  -3.8 °C 30.15in /  1020.9hPa NNW 3.0mph /  4.8km/h 5.0mph /  8km/h 69% 0.00in /  0mm 153 W/m2
15:40 34.1 °F /  1.2 °C 25.3 °F /  -3.7 °C 30.15in /  1020.9hPa NW 2.0mph /  3.2km/h 4.0mph /  6.4km/h 70% 0.00in /  0mm 125 W/m2
15:46 33.8 °F /  1 °C 25.0 °F /  -3.9 °C 30.15in /  1020.9hPa North 3.0mph /  4.8km/h 4.0mph /  6.4km/h 70% 0.00in /  0mm 146 W/m2
15:52 33.7 °F /  0.9 °C 25.0 °F /  -3.9 °C 30.14in /  1020.5hPa NNW 3.0mph /  4.8km/h 4.0mph /  6.4km/h 70% 0.00in /  0mm 116 W/m2
15:58 33.4 °F /  0.8 °C 24.7 °F /  -4.1 °C 30.14in /  1020.5hPa NNW 4.0mph /  6.4km/h 8.0mph /  12.9km/h 70% 0.00in /  0mm 77 W/m2
16:04 33.2 °F /  0.7 °C 24.5 °F /  -4.2 °C 30.14in /  1020.5hPa NNW 4.0mph /  6.4km/h 4.0mph /  6.4km/h 70% 0.00in /  0mm 70 W/m2
16:10 32.9 °F /  0.5 °C 24.2 °F /  -4.3 °C 30.14in /  1020.5hPa NW 3.0mph /  4.8km/h 5.0mph /  8km/h 70% 0.00in /  0mm 56 W/m2
16:16 32.6 °F /  0.3 °C 23.9 °F /  -4.5 °C 30.14in /  1020.5hPa NNW 3.0mph /  4.8km/h 5.0mph /  8km/h 70% 0.00in /  0mm 56 W/m2
16:22 32.3 °F /  0.2 °C 23.9 °F /  -4.5 °C 30.14in /  1020.5hPa NNW 3.0mph /  4.8km/h 4.0mph /  6.4km/h 71% 0.00in /  0mm 46 W/m2
16:28 31.9 °F /  -0.1 °C 23.6 °F /  -4.7 °C 30.14in /  1020.5hPa NNW 3.0mph /  4.8km/h 4.0mph /  6.4km/h 71% 0.00in /  0mm 39 W/m2
16:34 31.7 °F /  -0.2 °C 23.7 °F /  -4.6 °C 30.13in /  1020.2hPa NW 3.0mph /  4.8km/h 5.0mph /  8km/h 72% 0.00in /  0mm 35 W/m2
16:40 31.4 °F /  -0.3 °C 23.4 °F /  -4.8 °C 30.13in /  1020.2hPa NNW 3.0mph /  4.8km/h 3.0mph /  4.8km/h 72% 0.00in /  0mm 32 W/m2
16:46 31.2 °F /  -0.4 °C 23.5 °F /  -4.7 °C 30.13in /  1020.2hPa NNW 2.0mph /  3.2km/h 4.0mph /  6.4km/h 73% 0.00in /  0mm 28 W/m2
16:52 30.9 °F /  -0.6 °C 23.3 °F /  -4.8 °C 30.13in /  1020.2hPa NNW 2.0mph /  3.2km/h 3.0mph /  4.8km/h 73% 0.00in /  0mm 21 W/m2
16:58 30.6 °F /  -0.8 °C 23.3 °F /  -4.8 °C 30.12in /  1019.9hPa NW 1.0mph /  1.6km/h 4.0mph /  6.4km/h 74% 0.00in /  0mm 16 W/m2
17:04 30.4 °F /  -0.9 °C 23.1 °F /  -4.9 °C 30.12in /  1019.9hPa NNW 1.0mph /  1.6km/h 2.0mph /  3.2km/h 74% 0.00in /  0mm 11 W/m2
17:10 30.2 °F /  -1 °C 22.9 °F /  -5.1 °C 30.12in /  1019.9hPa NNW 1.0mph /  1.6km/h 1.0mph /  1.6km/h 74% 0.00in /  0mm 5 W/m2
17:16 30.1 °F /  -1.1 °C 22.8 °F /  -5.1 °C 30.12in /  1019.9hPa Calm   1.0mph /  1.6km/h 74% 0.00in /  0mm 0 W/m2
17:22 29.8 °F /  -1.2 °C 22.8 °F /  -5.1 °C 30.12in /  1019.9hPa Calm     75% 0.00in /  0mm 0 W/m2
17:28 29.6 °F /  -1.3 °C 22.6 °F /  -5.2 °C 30.12in /  1019.9hPa Calm     75% 0.00in /  0mm 0 W/m2
17:34 29.5 °F /  -1.4 °C 22.6 °F /  -5.2 °C 30.12in /  1019.9hPa Calm     75% 0.00in /  0mm 0 W/m2
17:40 29.2 °F /  -1.6 °C 22.6 °F /  -5.2 °C 30.12in /  1019.9hPa Calm   1.0mph /  1.6km/h 76% 0.00in /  0mm 0 W/m2
17:46 29.0 °F /  -1.7 °C 22.4 °F /  -5.3 °C 30.12in /  1019.9hPa Calm   1.0mph /  1.6km/h 76% 0.00in /  0mm 0 W/m2
17:52 28.8 °F /  -1.8 °C 22.2 °F /  -5.4 °C 30.12in /  1019.9hPa Calm     76% 0.00in /  0mm 0 W/m2
17:58 28.6 °F /  -1.9 °C 22.3 °F /  -5.4 °C 30.12in /  1019.9hPa Calm     77% 0.00in /  0mm 0 W/m2
18:04 28.5 °F /  -1.9 °C 22.2 °F /  -5.4 °C 30.12in /  1019.9hPa Calm     77% 0.00in /  0mm 0 W/m2
18:10 28.3 °F /  -2.1 °C 22.0 °F /  -5.6 °C 30.12in /  1019.9hPa Calm     77% 0.00in /  0mm 0 W/m2
18:16 28.2 °F /  -2.1 °C 21.9 °F /  -5.6 °C 30.12in /  1019.9hPa Calm     77% 0.00in /  0mm 0 W/m2
18:22 28.1 °F /  -2.2 °C 22.1 °F /  -5.5 °C 30.12in /  1019.9hPa Calm     78% 0.00in /  0mm 0 W/m2
18:28 28.1 °F /  -2.2 °C 22.1 °F /  -5.5 °C 30.12in /  1019.9hPa Calm     78% 0.00in /  0mm 0 W/m2
18:34 28.1 °F /  -2.2 °C 22.1 °F /  -5.5 °C 30.12in /  1019.9hPa Calm     78% 0.00in /  0mm 0 W/m2
18:40 28.1 °F /  -2.2 °C 22.1 °F /  -5.5 °C 30.12in /  1019.9hPa Calm     78% 0.00in /  0mm 0 W/m2
18:46 28.1 °F /  -2.2 °C 22.1 °F /  -5.5 °C 30.12in /  1019.9hPa Calm     78% 0.00in /  0mm 0 W/m2
18:52 28.0 °F /  -2.2 °C 22.0 °F /  -5.6 °C 30.12in /  1019.9hPa Calm     78% 0.00in /  0mm 0 W/m2
18:58 28.0 °F /  -2.2 °C 22.0 °F /  -5.6 °C 30.12in /  1019.9hPa Calm     78% 0.00in /  0mm 0 W/m2
19:04 27.9 °F /  -2.3 °C 21.9 °F /  -5.6 °C 30.12in /  1019.9hPa Calm   1.0mph /  1.6km/h 78% 0.00in /  0mm 0 W/m2
19:10 27.9 °F /  -2.3 °C 21.9 °F /  -5.6 °C 30.12in /  1019.9hPa NNW 1.0mph /  1.6km/h 1.0mph /  1.6km/h 78% 0.00in /  0mm 0 W/m2
19:16 28.0 °F /  -2.2 °C 22.0 °F /  -5.6 °C 30.12in /  1019.9hPa NNW 1.0mph /  1.6km/h 1.0mph /  1.6km/h 78% 0.00in /  0mm 0 W/m2
19:22 27.9 °F /  -2.3 °C 21.9 °F /  -5.6 °C 30.12in /  1019.9hPa Calm     78% 0.00in /  0mm 0 W/m2
19:28 27.8 °F /  -2.3 °C 21.8 °F /  -5.7 °C 30.12in /  1019.9hPa Calm     78% 0.00in /  0mm 0 W/m2
19:34 27.7 °F /  -2.4 °C 21.7 °F /  -5.7 °C 30.12in /  1019.9hPa Calm     78% 0.00in /  0mm 0 W/m2
19:40 27.6 °F /  -2.4 °C 21.6 °F /  -5.8 °C 30.11in /  1019.5hPa Calm     78% 0.00in /  0mm 0 W/m2
19:46 27.5 °F /  -2.5 °C 21.5 °F /  -5.8 °C 30.11in /  1019.5hPa Calm     78% 0.00in /  0mm 0 W/m2
19:52 27.4 °F /  -2.6 °C 21.4 °F /  -5.9 °C 30.11in /  1019.5hPa Calm     78% 0.00in /  0mm 0 W/m2
19:58 27.3 °F /  -2.6 °C 21.3 °F /  -5.9 °C 30.11in /  1019.5hPa Calm     78% 0.00in /  0mm 0 W/m2
20:04 27.2 °F /  -2.7 °C 21.2 °F /  -6 °C 30.11in /  1019.5hPa Calm     78% 0.00in /  0mm 0 W/m2
20:10 27.1 °F /  -2.7 °C 21.2 °F /  -6 °C 30.10in /  1019.2hPa Calm     78% 0.00in /  0mm 0 W/m2
20:16 26.9 °F /  -2.8 °C 21.3 °F /  -5.9 °C 30.10in /  1019.2hPa Calm     79% 0.00in /  0mm 0 W/m2
20:22 26.8 °F /  -2.9 °C 21.2 °F /  -6 °C 30.10in /  1019.2hPa Calm     79% 0.00in /  0mm 0 W/m2
20:28 26.7 °F /  -2.9 °C 21.1 °F /  -6.1 °C 30.10in /  1019.2hPa Calm     79% 0.00in /  0mm 0 W/m2
20:34 26.5 °F /  -3.1 °C 21.2 °F /  -6 °C 30.10in /  1019.2hPa Calm     80% 0.00in /  0mm 0 W/m2
20:40 26.4 °F /  -3.1 °C 21.1 °F /  -6.1 °C 30.09in /  1018.8hPa Calm     80% 0.00in /  0mm 0 W/m2
20:46 26.3 °F /  -3.2 °C 21.3 °F /  -5.9 °C 30.09in /  1018.8hPa Calm     81% 0.00in /  0mm 0 W/m2
20:52 26.1 °F /  -3.3 °C 21.1 °F /  -6.1 °C 30.09in /  1018.8hPa Calm     81% 0.00in /  0mm 0 W/m2
20:58 25.9 °F /  -3.4 °C 20.9 °F /  -6.2 °C 30.09in /  1018.8hPa Calm     81% 0.00in /  0mm 0 W/m2
21:04 25.8 °F /  -3.4 °C 20.8 °F /  -6.2 °C 30.08in /  1018.5hPa Calm     81% 0.00in /  0mm 0 W/m2
21:10 25.6 °F /  -3.6 °C 20.9 °F /  -6.2 °C 30.08in /  1018.5hPa Calm     82% 0.00in /  0mm 0 W/m2
21:16 25.6 °F /  -3.6 °C 20.9 °F /  -6.2 °C 30.08in /  1018.5hPa Calm     82% 0.00in /  0mm 0 W/m2
21:22 25.5 °F /  -3.6 °C 20.8 °F /  -6.2 °C 30.08in /  1018.5hPa Calm     82% 0.00in /  0mm 0 W/m2
21:28 25.7 °F /  -3.5 °C 21.3 °F /  -5.9 °C 30.08in /  1018.5hPa Calm     83% 0.00in /  0mm 0 W/m2
21:34 25.8 °F /  -3.4 °C 21.3 °F /  -5.9 °C 30.07in /  1018.2hPa Calm     83% 0.00in /  0mm 0 W/m2
21:40 25.8 °F /  -3.4 °C 21.3 °F /  -5.9 °C 30.07in /  1018.2hPa Calm     83% 0.00in /  0mm 0 W/m2
21:46 25.8 °F /  -3.4 °C 21.3 °F /  -5.9 °C 30.07in /  1018.2hPa Calm     83% 0.00in /  0mm 0 W/m2
21:52 25.8 °F /  -3.4 °C 21.3 °F /  -5.9 °C 30.07in /  1018.2hPa Calm     83% 0.00in /  0mm 0 W/m2
21:58 25.9 °F /  -3.4 °C 21.4 °F /  -5.9 °C 30.06in /  1017.8hPa Calm     83% 0.00in /  0mm 0 W/m2
22:04 25.9 °F /  -3.4 °C 21.7 °F /  -5.7 °C 30.06in /  1017.8hPa Calm     84% 0.00in /  0mm 0 W/m2
22:10 25.9 °F /  -3.4 °C 21.7 °F /  -5.7 °C 30.06in /  1017.8hPa Calm     84% 0.00in /  0mm 0 W/m2
22:16 25.9 °F /  -3.4 °C 21.7 °F /  -5.7 °C 30.06in /  1017.8hPa Calm     84% 0.00in /  0mm 0 W/m2
22:22 26.0 °F /  -3.3 °C 21.8 °F /  -5.7 °C 30.06in /  1017.8hPa Calm     84% 0.00in /  0mm 0 W/m2
22:28 26.0 °F /  -3.3 °C 21.8 °F /  -5.7 °C 30.06in /  1017.8hPa Calm     84% 0.00in /  0mm 0 W/m2
22:34 26.0 °F /  -3.3 °C 21.8 °F /  -5.7 °C 30.06in /  1017.8hPa Calm     84% 0.00in /  0mm 0 W/m2
22:40 26.0 °F /  -3.3 °C 21.8 °F /  -5.7 °C 30.05in /  1017.5hPa Calm     84% 0.00in /  0mm 0 W/m2
22:46 26.1 °F /  -3.3 °C 21.9 °F /  -5.6 °C 30.05in /  1017.5hPa Calm     84% 0.00in /  0mm 0 W/m2
22:52 26.0 °F /  -3.3 °C 21.5 °F /  -5.8 °C 30.05in /  1017.5hPa Calm     83% 0.00in /  0mm 0 W/m2
22:58 26.0 °F /  -3.3 °C 21.5 °F /  -5.8 °C 30.04in /  1017.2hPa Calm   1.0mph /  1.6km/h 83% 0.00in /  0mm 0 W/m2
23:04 25.9 °F /  -3.4 °C 21.4 °F /  -5.9 °C 30.04in /  1017.2hPa Calm   1.0mph /  1.6km/h 83% 0.00in /  0mm 0 W/m2
23:10 25.9 °F /  -3.4 °C 21.2 °F /  -6 °C 30.04in /  1017.2hPa Calm     82% 0.00in /  0mm 0 W/m2
23:16 25.8 °F /  -3.4 °C 21.1 °F /  -6.1 °C 30.04in /  1017.2hPa Calm     82% 0.00in /  0mm 0 W/m2
23:22 25.6 °F /  -3.6 °C 20.9 °F /  -6.2 °C 30.04in /  1017.2hPa Calm     82% 0.00in /  0mm 0 W/m2
23:28 25.5 °F /  -3.6 °C 20.8 °F /  -6.2 °C 30.03in /  1016.8hPa Calm     82% 0.00in /  0mm 0 W/m2
23:34 25.4 °F /  -3.7 °C 20.7 °F /  -6.3 °C 30.03in /  1016.8hPa Calm     82% 0.00in /  0mm 0 W/m2
23:40 25.1 °F /  -3.8 °C 20.4 °F /  -6.4 °C 30.03in /  1016.8hPa Calm     82% 0.00in /  0mm 0 W/m2
23:46 25.0 °F /  -3.9 °C 20.3 °F /  -6.5 °C 30.03in /  1016.8hPa Calm     82% 0.00in /  0mm 0 W/m2
23:52 24.8 °F /  -4 °C 20.4 °F /  -6.4 °C 30.03in /  1016.8hPa Calm     83% 0.00in /  0mm 0 W/m2
23:58 24.6 °F /  -4.1 °C 20.2 °F /  -6.6 °C 30.02in /  1016.5hPa Calm     83% 0.00in /  0mm 0 W/m2
Country Meadow, Clay, NY, USA
Compliments of Weather Underground - 2 mb